Terminal Aerodrome Forecast
Issued by NWS Buffalo, NY

Home | Current Version | Previous Version | Text Only | Print | Product List | Glossary On
Versions: 1 2 3 4 5 6 7 8 9 10 11 12 13 14 15 16 17 18 19 20 21 22 23 24 25 26 27
000
FTUS41 KBUF 251007 AAB
TAFART
TAF AMD
KART 251007Z 2510/2606 21005KT P6SM BKN200
     FM251200 20006KT P6SM VCSH BKN100
     FM251400 20006KT P6SM VCTS BKN060CB
     FM251600 22012KT 5SM -TSRA OVC040CB
     FM251900 23012KT P6SM VCTS BKN040CB
     FM252100 23012KT P6SM SCT050
     FM260200 26007KT P6SM SKC=

USA.gov is the U.S. government's official web portal to all federal, state and local government web resources and services.